Main page
METAR-TAF:

METAR-TAF

Airports :

Shimla Airport

Shimla, India

latitude: 31-04-54N, longitude: 77-04-05E, elevation: 1546 m

Current weather observation

The report was made 1 hour and 37 minutes ago, at 06:30 UTC
Calm wind
Temperature 23°C
Humidity 94%
Pressure 1011 hPa
Visibility: 5000 m
Few clouds at a height lower than 100 ft
Broken clouds at a height of 3000 ft
Broken clouds at a height of 5000 ft

METAR: VISM 300630Z 00000KT 5000 FEW000 BKN030 BKN050 23/22 Q1011

Time: 13:37 (08:07 UTC)

Forecast

The report was made 3 hours and 7 minutes ago, at 05:00 UTC
Forecast valid from 30 at 06 UTC to 30 at 15 UTC
Wind kt from the North
Visibility: 5000 m
Few clouds at a height of 1000 ft
Broken clouds at a height of 4000 ft
Overcast at a height of 5000 ft
mist, light rain
Temporary
from 30 at 09 UTC to 30 at 12 UTC
Visibility: 1500 m
Few clouds at a height of 4000 ft, Cumulonimbus.
thunderstorm, rain

TAF: VISM 300500Z 3006/3015 00000KT 5000 BR -RA FEW010 BKN040 OVC050 TEMPO 3009/3012 1500 TSRA FEW040CB

Weather observations and forecasts of more than 4000 airports (METAR and TAF reports).

The available stations are represented by yellow and red dots on the map.

Hover mouse over dot to see the name of the station.

Then click to see weather observations and forecasts.

To change the map : click on the green buttons with a black cross to zoom in, on the green button with a dash to zoom out, or on the green arrows for adjacent maps.


METAR-TAF: